Time;durP1;ratioP1;P1;durP2;ratioP2;P2;SDS_P1;SDS_P2;PMS_P1;PMS_P2;Temp;Humidity;BMP_temperature;BMP_pressure;BME280_temperature;BME280_humidity;BME280_pressure;Samples;Min_cycle;Max_cycle;Signal;HPM_P1;HPM_P2
2022/05/12 00:02:03;;;;;;;181.48;135.18;;;21.20;99.90;;;;;;4970104;28;20651;-49
2022/05/12 00:04:30;;;;;;;163.38;123.38;;;21.50;1.00;;;;;;4964414;28;20713;-49
2022/05/12 00:06:56;;;;;;;105.53;95.25;;;;;;;;;;4962078;28;22960;-49
2022/05/12 00:09:22;;;;;;;173.63;121.97;;;;;;;;;;4970045;28;20380;-49
2022/05/12 00:11:48;;;;;;;127.22;110.72;;;21.50;4.70;;;;;;4970490;28;20720;-49
2022/05/12 00:14:14;;;;;;;181.02;124.75;;;;;;;;;;4966543;28;20186;-49
2022/05/12 00:16:40;;;;;;;178.88;124.38;;;21.00;1.00;;;;;;4961604;28;20292;-49
2022/05/12 00:19:06;;;;;;;168.80;118.45;;;21.10;99.90;;;;;;4961635;28;20809;-49
2022/05/12 00:21:32;;;;;;;122.47;100.05;;;21.70;1.00;;;;;;4961591;28;20309;-49
2022/05/12 00:23:58;;;;;;;126.28;95.75;;;;;;;;;;4963300;28;20886;-49
2022/05/12 00:26:29;;;;;;;95.88;86.40;;;20.80;1.00;;;;;;4965748;28;20376;-48
2022/05/12 00:28:57;;;;;;;140.88;104.65;;;20.80;1.00;;;;;;4967142;28;20609;-49
2022/05/12 00:31:24;;;;;;;255.23;153.05;;;20.70;99.90;;;;;;4961571;28;20221;-49
2022/05/12 00:33:50;;;;;;;167.88;117.78;;;;;;;;;;4962968;28;20221;-49
2022/05/12 00:36:15;;;;;;;152.07;102.50;;;20.80;1.00;;;;;;4960911;28;20554;-48
2022/05/12 00:38:41;;;;;;;159.05;109.60;;;20.50;76.70;;;;;;4964835;28;20202;-49
2022/05/12 00:41:08;;;;;;;170.32;116.68;;;20.60;58.70;;;;;;4969195;28;20188;-49
2022/05/12 00:43:36;;;;;;;194.13;118.40;;;20.50;30.50;;;;;;4959648;28;20320;-48
2022/05/12 00:46:14;;;;;;;98.25;87.68;;;20.70;1.00;;;;;;4974447;28;20213;-49
2022/05/12 00:48:41;;;;;;;161.73;106.47;;;20.70;1.00;;;;;;4964364;28;20217;-49
2022/05/12 00:51:10;;;;;;;175.50;111.13;;;20.50;1.00;;;;;;4963051;28;20595;-49
2022/05/12 00:53:36;;;;;;;170.40;112.38;;;20.70;1.00;;;;;;4964958;28;20186;-48
2022/05/12 00:56:03;;;;;;;145.73;104.05;;;20.30;45.50;;;;;;4975124;28;20190;-49
2022/05/12 00:58:31;;;;;;;127.15;96.78;;;21.50;79.50;;;;;;4969621;28;20304;-49
2022/05/12 01:00:57;;;;;;;220.60;129.07;;;;;;;;;;4967073;28;20828;-49
2022/05/12 01:03:26;;;;;;;134.65;99.38;;;20.10;99.90;;;;;;4970118;28;20217;-49
2022/05/12 01:05:53;;;;;;;119.68;86.90;;;20.20;99.90;;;;;;4971452;28;20579;-49
2022/05/12 01:08:20;;;;;;;104.82;82.35;;;20.20;99.90;;;;;;4972727;28;20440;-49
2022/05/12 01:10:52;;;;;;;168.65;107.68;;;20.30;99.90;;;;;;4968528;28;20320;-48
2022/05/12 01:13:18;;;;;;;116.68;89.28;;;20.10;99.90;;;;;;4968311;28;20308;-49
2022/05/12 01:16:00;;;;;;;196.57;111.30;;;20.10;99.90;;;;;;4977152;28;20253;-49
2022/05/12 01:18:28;;;;;;;88.85;70.53;;;20.00;99.90;;;;;;4966832;28;20686;-49
2022/05/12 01:20:54;;;;;;;184.45;109.03;;;;;;;;;;4963046;28;20746;-49
2022/05/12 01:23:29;;;;;;;130.13;90.60;;;19.80;1.00;;;;;;4965238;28;20282;-49
2022/05/12 01:26:01;;;;;;;153.40;91.22;;;20.00;1.00;;;;;;4963421;28;20213;-49
2022/05/12 01:28:27;;;;;;;106.78;73.18;;;;;;;;;;4970811;28;20331;-49
2022/05/12 01:30:53;;;;;;;157.88;91.68;;;;;;;;;;4967054;28;20232;-49
2022/05/12 01:33:19;;;;;;;111.43;77.30;;;;;;;;;;4971581;28;20323;-48
2022/05/12 01:35:45;;;;;;;107.20;73.10;;;;;;;;;;4968086;28;20785;-49
2022/05/12 01:38:13;;;;;;;110.70;71.97;;;;;;;;;;4972274;28;20646;-49
2022/05/12 01:40:39;;;;;;;156.73;85.80;;;;;;;;;;4964671;28;20213;-49
2022/05/12 01:43:06;;;;;;;125.82;74.82;;;19.20;1.00;;;;;;4976472;28;20225;-49
2022/05/12 01:45:33;;;;;;;174.65;94.50;;;;;;;;;;4968403;28;20212;-49
2022/05/12 01:47:59;;;;;;;107.95;71.78;;;;;;;;;;4967609;28;20218;-48
2022/05/12 01:50:25;;;;;;;157.18;85.90;;;19.00;1.00;;;;;;4971001;28;20188;-49
2022/05/12 01:52:50;;;;;;;152.05;84.75;;;19.00;1.00;;;;;;4973249;28;20538;-49
2022/05/12 01:55:18;;;;;;;105.28;68.93;;;18.90;1.00;;;;;;4970054;28;20210;-49
2022/05/12 01:57:44;;;;;;;150.38;85.75;;;18.90;1.00;;;;;;4967897;28;20225;-49
2022/05/12 02:00:19;;;;;;;168.43;93.85;;;18.90;1.00;;;;;;4975504;28;20527;-48
2022/05/12 02:02:45;;;;;;;120.35;77.03;;;;;;;;;;4973875;28;20190;-48
2022/05/12 02:05:11;;;;;;;118.68;70.97;;;18.80;1.00;;;;;;4974774;28;20205;-49
2022/05/12 02:07:41;;;;;;;150.20;85.78;;;18.80;1.00;;;;;;4967386;28;20217;-49
2022/05/12 02:10:09;;;;;;;106.82;71.13;;;18.90;1.00;;;;;;4974139;28;20319;-49
2022/05/12 02:12:35;;;;;;;142.57;87.05;;;;;;;;;;4967900;28;20687;-48
2022/05/12 02:15:01;;;;;;;163.65;92.15;;;;;;;;;;4970780;28;20217;-49
2022/05/12 02:17:27;;;;;;;213.13;109.18;;;;;;;;;;4961952;28;20372;-48
2022/05/12 02:19:53;;;;;;;180.73;98.80;;;;;;;;;;4961752;28;20296;-49
2022/05/12 02:22:19;;;;;;;166.65;99.60;;;;;;;;;;4973245;28;20319;-48
2022/05/12 02:24:45;;;;;;;140.38;85.13;;;;;;;;;;4972887;28;20613;-48
2022/05/12 02:27:12;;;;;;;215.13;113.13;;;;;;;;;;4970926;28;20221;-48
2022/05/12 02:29:38;;;;;;;195.15;101.55;;;;;;;;;;4967685;28;20702;-48
2022/05/12 02:32:04;;;;;;;177.73;96.90;;;;;;;;;;4973269;28;20186;-49
2022/05/12 02:34:30;;;;;;;121.97;77.35;;;;;;;;;;4969108;28;20233;-48
2022/05/12 02:37:02;;;;;;;200.50;103.80;;;;;;;;;;4964855;28;20747;-49
2022/05/12 02:39:32;;;;;;;160.30;86.35;;;19.00;1.00;;;;;;4971461;28;20589;-48
2022/05/12 02:41:59;;;;;;;162.05;90.40;;;;;;;;;;4972079;28;20714;-49
2022/05/12 02:44:25;;;;;;;114.70;78.03;;;;;;;;;;4971645;28;20201;-48
2022/05/12 02:46:51;;;;;;;162.88;95.10;;;;;;;;;;4961732;28;20309;-49
2022/05/12 02:49:17;;;;;;;203.38;106.10;;;;;;;;;;4966919;28;20240;-48
2022/05/12 02:51:43;;;;;;;156.07;93.35;;;;;;;;;;4969507;28;20217;-48
2022/05/12 02:54:11;;;;;;;172.18;97.13;;;18.10;1.00;;;;;;4965405;28;20216;-49
2022/05/12 02:56:37;;;;;;;160.55;84.72;;;19.30;1.00;;;;;;4966202;28;20209;-48
2022/05/12 02:59:03;;;;;;;155.00;86.22;;;;;;;;;;4965995;28;22809;-48
2022/05/12 03:01:30;;;;;;;188.13;98.82;;;;;;;;;;4963204;28;20307;-48
2022/05/12 03:03:55;;;;;;;221.40;111.28;;;18.90;1.00;;;;;;4958212;28;20225;-49
2022/05/12 03:06:21;;;;;;;151.70;81.88;;;;;;;;;;4973718;28;20675;-48
2022/05/12 03:08:47;;;;;;;127.90;76.53;;;;;;;;;;4969174;28;20713;-48
2022/05/12 03:11:13;;;;;;;158.48;80.72;;;19.00;1.00;;;;;;4964281;28;20485;-48
2022/05/12 03:13:38;;;;;;;99.38;62.05;;;18.60;1.00;;;;;;4972517;28;20217;-48
2022/05/12 03:16:04;;;;;;;139.13;76.20;;;;;;;;;;4971213;28;20252;-48
2022/05/12 03:18:30;;;;;;;96.40;58.03;;;;;;;;;;4976978;28;20639;-49
2022/05/12 03:20:56;;;;;;;171.13;81.30;;;18.40;1.00;;;;;;4964747;28;20224;-48
2022/05/12 03:23:22;;;;;;;145.80;76.55;;;;;;;;;;4967329;28;20312;-48
2022/05/12 03:25:49;;;;;;;167.68;82.00;;;18.10;1.00;;;;;;4966191;28;20205;-48
2022/05/12 03:28:15;;;;;;;143.80;67.45;;;;;;;;;;4960752;28;20253;-48
2022/05/12 03:30:44;;;;;;;132.30;65.20;;;;;;;;;;4965145;28;20797;-48
2022/05/12 03:33:10;;;;;;;174.30;79.90;;;18.30;1.00;;;;;;4960663;28;20300;-48
2022/05/12 03:35:37;;;;;;;106.45;58.00;;;18.30;1.00;;;;;;4968963;28;20204;-48
2022/05/12 03:38:04;;;;;;;154.98;74.18;;;18.20;1.00;;;;;;4965926;28;20219;-48
2022/05/12 03:40:33;;;;;;;137.57;73.25;;;18.60;3.50;;;;;;4968002;28;20471;-48
2022/05/12 03:42:59;;;;;;;165.07;79.20;;;;;;;;;;4964847;28;20292;-48
2022/05/12 03:45:29;;;;;;;101.03;59.50;;;18.00;1.00;;;;;;4973789;28;20459;-48
2022/05/12 03:47:56;;;;;;;196.07;95.63;;;18.20;1.00;;;;;;4961496;28;20578;-48
2022/05/12 03:50:24;;;;;;;105.38;60.35;;;18.00;1.00;;;;;;4973258;28;20193;-48
2022/05/12 03:52:52;;;;;;;102.65;59.90;;;18.00;1.00;;;;;;4974262;28;20244;-48
2022/05/12 03:55:22;;;;;;;196.25;89.40;;;17.90;1.00;;;;;;4969668;28;20228;-48
2022/05/12 03:57:49;;;;;;;91.78;51.88;;;17.50;28.50;;;;;;4974441;28;20261;-48
2022/05/12 04:00:28;;;;;;;118.47;63.20;;;17.50;99.90;;;;;;4966654;28;22757;-48
2022/05/12 04:02:54;;;;;;;256.38;152.10;;;;;;;;;;4969447;28;20213;-48
2022/05/12 04:05:20;;;;;;;258.02;160.30;;;;;;;;;;4965808;28;20603;-48
2022/05/12 04:07:46;;;;;;;174.45;123.95;;;16.70;99.90;;;;;;4977484;28;20233;-48
2022/05/12 04:10:15;;;;;;;172.40;123.13;;;16.40;99.90;;;;;;4978415;28;20210;-48
2022/05/12 04:12:41;;;;;;;185.05;109.43;;;16.20;99.90;;;;;;4969174;28;20650;-48
2022/05/12 04:15:08;;;;;;;139.13;84.00;;;16.20;99.90;;;;;;4975460;28;20361;-48
2022/05/12 04:17:35;;;;;;;199.63;100.03;;;;;;;;;;4966013;28;20515;-49
2022/05/12 04:20:06;;;;;;;178.60;92.80;;;16.10;99.90;;;;;;4968239;28;20261;-48
2022/05/12 04:22:33;;;;;;;153.68;92.75;;;16.10;99.90;;;;;;4965538;28;20295;-48
2022/05/12 04:24:59;;;;;;;163.23;92.38;;;15.90;99.90;;;;;;4969032;28;20556;-48
2022/05/12 04:27:25;;;;;;;107.22;83.75;;;16.20;99.90;;;;;;4973640;28;20635;-48
2022/05/12 04:29:50;;;;;;;88.78;67.95;;;;;;;;;;4978119;28;20550;-48
2022/05/12 04:32:16;;;;;;;149.15;83.97;;;16.10;99.90;;;;;;4966490;28;20648;-48
2022/05/12 04:37:31;;;;;;;144.40;71.15;;;16.10;99.90;;;;;;4961203;28;20355;-48
2022/05/12 04:40:05;;;;;;;190.50;85.43;;;15.90;99.90;;;;;;4968085;28;20217;-48
2022/05/12 04:42:31;;;;;;;160.68;78.25;;;;;;;;;;4966881;28;20801;-48
2022/05/12 04:44:57;;;;;;;166.73;78.32;;;;;;;;;;4964650;28;20225;-48
2022/05/12 04:47:22;;;;;;;124.15;63.13;;;;;;;;;;4969475;28;20220;-48
2022/05/12 04:49:48;;;;;;;108.50;61.83;;;16.10;99.90;;;;;;4970441;28;20229;-48
2022/05/12 04:52:14;;;;;;;190.13;83.22;;;;;;;;;;4970344;28;20690;-48
2022/05/12 04:54:40;;;;;;;83.38;55.58;;;;;;;;;;4972207;28;20232;-48
2022/05/12 04:57:06;;;;;;;148.52;81.97;;;;;;;;;;4972581;28;20779;-48
2022/05/12 04:59:33;;;;;;;102.90;69.25;;;16.00;99.90;;;;;;4973555;28;20230;-48
2022/05/12 05:02:00;;;;;;;166.00;82.35;;;;;;;;;;4969937;28;20189;-49
2022/05/12 05:04:26;;;;;;;128.30;73.30;;;;;;;;;;4971354;28;20368;-48
2022/05/12 05:06:52;;;;;;;157.85;86.82;;;;;;;;;;4969293;28;20296;-48
2022/05/12 05:09:18;;;;;;;155.93;86.25;;;;;;;;;;4969508;28;20243;-48
2022/05/12 05:11:44;;;;;;;253.77;116.88;;;;;;;;;;4967742;28;20208;-48
2022/05/12 05:14:10;;;;;;;143.68;82.32;;;;;;;;;;4971590;28;20190;-48
2022/05/12 05:16:36;;;;;;;129.48;81.53;;;;;;;;;;4983375;28;20575;-48
2022/05/12 05:19:02;;;;;;;182.70;90.45;;;;;;;;;;4977673;28;20562;-48
2022/05/12 05:21:28;;;;;;;147.23;79.68;;;;;;;;;;4978425;28;20232;-48
2022/05/12 05:23:54;;;;;;;140.35;76.45;;;;;;;;;;4966711;28;20233;-49
2022/05/12 05:26:20;;;;;;;123.97;70.93;;;;;;;;;;4971324;28;20960;-48
2022/05/12 05:28:46;;;;;;;114.28;69.28;;;;;;;;;;4977022;28;20531;-48
2022/05/12 05:31:12;;;;;;;118.45;73.18;;;;;;;;;;4976118;28;20209;-48
2022/05/12 05:33:38;;;;;;;119.07;71.32;;;;;;;;;;4976708;28;20218;-50
2022/05/12 05:36:04;;;;;;;224.55;102.18;;;;;;;;;;4968244;28;20748;-50
2022/05/12 05:38:30;;;;;;;81.50;63.25;;;;;;;;;;4974974;28;20186;-50
2022/05/12 05:40:56;;;;;;;143.30;78.00;;;;;;;;;;4978964;28;20178;-50
2022/05/12 05:43:23;;;;;;;215.40;103.15;;;;;;;;;;4961103;28;20214;-51
2022/05/12 05:45:50;;;;;;;195.75;96.95;;;;;;;;;;4951950;28;20227;-50
2022/05/12 05:48:16;;;;;;;146.60;90.00;;;16.30;99.90;;;;;;4969079;28;20225;-50
2022/05/12 05:53:31;;;;;;;154.27;91.65;;;16.40;86.60;;;;;;4973369;28;20881;-50
2022/05/12 05:56:00;;;;;;;238.57;122.60;;;16.90;76.00;;;;;;4966555;28;20668;-50
2022/05/12 05:58:27;;;;;;;107.47;79.80;;;15.50;58.90;;;;;;4968378;28;20582;-50
2022/05/12 06:00:54;;;;;;;183.60;105.68;;;;;;;;;;4969736;28;20728;-50
2022/05/12 06:03:20;;;;;;;165.35;94.45;;;;;;;;;;4971418;28;20261;-50
2022/05/12 06:05:46;;;;;;;184.77;101.15;;;;;;;;;;4968675;28;20429;-50
2022/05/12 06:08:14;;;;;;;211.45;112.18;;;16.40;5.30;;;;;;4970503;28;20206;-50
2022/05/12 06:10:42;;;;;;;179.73;102.30;;;16.70;7.60;;;;;;4968763;28;20781;-50
2022/05/12 06:13:09;;;;;;;205.30;109.00;;;;;;;;;;4958262;28;20240;-50
2022/05/12 06:15:35;;;;;;;308.60;129.10;;;16.60;1.00;;;;;;4969388;28;20240;-50
2022/05/12 06:18:06;;;;;;;157.05;82.05;;;16.60;1.00;;;;;;4971938;28;20229;-50
2022/05/12 06:20:32;;;;;;;161.13;92.82;;;;;;;;;;4971991;28;20539;-50
2022/05/12 06:22:58;;;;;;;270.70;129.07;;;;;;;;;;4968216;28;20181;-49
2022/05/12 06:25:24;;;;;;;170.27;106.57;;;;;;;;;;4976995;28;20311;-47
2022/05/12 06:27:51;;;;;;;294.67;165.15;;;;;;;;;;4952794;28;20737;-48
2022/05/12 06:30:17;;;;;;;184.32;129.18;;;;;;;;;;4971978;28;20244;-48
2022/05/12 06:32:44;;;;;;;204.43;134.45;;;17.10;1.00;;;;;;4972859;28;20603;-48
2022/05/12 06:35:12;;;;;;;242.32;142.40;;;17.10;1.00;;;;;;4972338;28;20621;-48
2022/05/12 06:37:38;;;;;;;200.13;124.18;;;;;;;;;;4975009;28;20271;-48
2022/05/12 06:40:05;;;;;;;192.57;118.95;;;17.00;1.00;;;;;;4977599;28;20213;-48
2022/05/12 06:42:31;;;;;;;200.15;125.05;;;;;;;;;;4971495;28;20209;-48
2022/05/12 06:44:57;;;;;;;272.48;149.32;;;;;;;;;;4970990;28;20296;-48
2022/05/12 06:47:23;;;;;;;227.68;139.32;;;;;;;;;;4971623;28;20228;-50
2022/05/12 06:49:50;;;;;;;125.20;103.53;;;16.80;1.00;;;;;;4974167;28;20589;-50
2022/05/12 06:52:16;;;;;;;237.98;132.52;;;;;;;;;;4960826;28;20225;-50
2022/05/12 06:54:44;;;;;;;262.05;148.07;;;;;;;;;;4964671;28;20223;-50
2022/05/12 06:57:11;;;;;;;167.65;113.47;;;16.80;99.90;;;;;;4958368;28;20217;-50
2022/05/12 06:59:39;;;;;;;173.38;109.70;;;16.70;1.00;;;;;;4971032;28;20186;-50
2022/05/12 07:02:05;;;;;;;180.60;98.50;;;16.70;1.00;;;;;;4961783;28;22902;-50
2022/05/12 07:04:33;;;;;;;181.85;92.65;;;16.60;99.90;;;;;;4965721;28;20228;-50
2022/05/12 07:06:59;;;;;;;334.55;162.10;;;;;;;;;;4959834;28;20213;-50
2022/05/12 07:09:25;;;;;;;139.73;92.78;;;16.70;1.00;;;;;;4964099;28;20654;-50
2022/05/12 07:11:52;;;;;;;215.30;110.05;;;16.90;90.00;;;;;;4963500;28;20292;-50
2022/05/12 07:14:17;;;;;;;210.18;112.57;;;17.10;1.00;;;;;;4957195;28;20209;-49
2022/05/12 07:16:44;;;;;;;158.80;104.15;;;17.30;1.00;;;;;;4967220;28;20221;-50
2022/05/12 07:19:11;;;;;;;229.07;113.45;;;;;;;;;;4965953;28;20308;-50
2022/05/12 07:27:07;;;;;;;262.92;114.55;;;;;;;;;;4953751;28;29334;-50
2022/05/12 07:29:34;;;;;;;349.13;163.18;;;;;;;;;;4957537;28;20178;-50
2022/05/12 07:32:01;;;;;;;446.42;383.73;;;16.90;1.00;;;;;;4953411;28;20698;-50
2022/05/12 07:34:27;;;;;;;379.48;348.73;;;17.20;99.90;;;;;;4963800;28;20220;-50
2022/05/12 07:36:54;;;;;;;367.05;332.60;;;17.20;99.90;;;;;;4974352;28;20275;-50
2022/05/12 07:39:25;;;;;;;381.73;344.63;;;17.10;99.90;;;;;;4976179;28;20269;-50
2022/05/12 07:41:55;;;;;;;168.40;113.35;;;16.90;32.20;;;;;;4965703;28;20238;-50
2022/05/12 07:44:22;;;;;;;187.57;114.25;;;17.30;99.90;;;;;;4954801;28;20605;-50
2022/05/12 07:46:49;;;;;;;151.13;112.53;;;;;;;;;;4951970;28;20237;-50
2022/05/12 07:49:15;;;;;;;183.77;106.43;;;;;;;;;;4957502;28;20294;-50
2022/05/12 07:51:41;;;;;;;129.20;95.05;;;;;;;;;;4971680;28;20309;-50
2022/05/12 07:54:07;;;;;;;116.43;95.60;;;;;;;;;;4975741;28;20229;-50
2022/05/12 07:56:33;;;;;;;120.95;103.18;;;;;;;;;;4976896;28;20660;-51
2022/05/12 07:58:59;;;;;;;241.98;126.88;;;;;;;;;;4970429;28;20256;-50
2022/05/12 08:01:26;;;;;;;220.00;130.20;;;17.20;1.00;;;;;;4972068;28;20232;-50
2022/05/12 08:03:53;;;;;;;147.18;110.63;;;17.20;99.90;;;;;;4971362;28;20237;-50
2022/05/12 08:06:20;;;;;;;212.07;134.70;;;17.50;1.00;;;;;;4959198;28;20709;-50
2022/05/12 08:08:48;;;;;;;153.07;115.00;;;17.60;1.00;;;;;;4970169;28;20277;-50
2022/05/12 08:11:14;;;;;;;231.52;140.02;;;17.60;85.10;;;;;;4961222;28;20197;-50
2022/05/12 08:13:40;;;;;;;169.57;124.97;;;18.00;55.00;;;;;;4964914;28;20229;-50
2022/05/12 08:16:06;;;;;;;146.35;114.78;;;17.80;99.90;;;;;;4970366;28;20214;-50
2022/05/12 08:18:33;;;;;;;204.07;141.25;;;17.70;1.00;;;;;;4971973;28;20213;-50
2022/05/12 08:20:59;;;;;;;276.50;164.80;;;17.90;82.50;;;;;;4970958;28;20261;-51
2022/05/12 08:23:25;;;;;;;153.00;118.25;;;;;;;;;;4971505;28;20205;-50
2022/05/12 08:25:51;;;;;;;169.77;119.53;;;17.80;1.00;;;;;;4970631;28;21861;-51
2022/05/12 08:28:23;;;;;;;223.43;138.75;;;17.90;99.90;;;;;;4971528;28;20327;-50
2022/05/12 08:30:50;;;;;;;200.38;129.70;;;17.30;1.00;;;;;;4959087;28;20233;-49
2022/05/12 08:33:16;;;;;;;232.30;132.48;;;16.00;1.00;;;;;;4968185;28;20247;-50
2022/05/12 08:35:42;;;;;;;148.90;107.65;;;17.50;68.70;;;;;;4973724;28;20208;-49
2022/05/12 08:38:09;;;;;;;166.98;119.78;;;17.40;1.00;;;;;;4979545;28;20240;-49
2022/05/12 08:41:04;;;;;;;193.98;131.70;;;17.40;94.40;;;;;;4968760;28;20308;-49
2022/05/12 08:43:44;;;;;;;208.38;148.27;;;17.70;1.00;;;;;;4968079;28;20206;-49
2022/05/12 08:46:21;;;;;;;237.13;150.45;;;17.80;1.00;;;;;;4964855;28;20257;-49
2022/05/12 08:48:49;;;;;;;258.15;162.50;;;17.60;1.00;;;;;;4965428;28;21136;-49
2022/05/12 08:51:18;;;;;;;256.30;159.13;;;17.60;1.00;;;;;;4958806;28;20351;-49
2022/05/12 08:53:51;;;;;;;249.98;159.57;;;17.60;1.00;;;;;;4954908;28;20273;-49
2022/05/12 08:56:20;;;;;;;268.25;160.50;;;17.70;1.00;;;;;;4962478;28;20232;-49
2022/05/12 08:58:49;;;;;;;228.85;150.95;;;18.00;1.00;;;;;;4970885;28;20217;-49
2022/05/12 09:01:53;;;;;;;216.80;151.23;;;18.00;1.00;;;;;;4970264;28;20449;-50
2022/05/12 09:05:02;;;;;;;214.65;151.90;;;15.80;1.00;;;;;;4971709;28;20216;-49
2022/05/12 09:07:45;;;;;;;220.95;157.52;;;17.80;1.00;;;;;;4970432;28;20272;-49
2022/05/12 09:10:29;;;;;;;234.57;158.60;;;17.80;99.90;;;;;;4975547;28;20213;-49
2022/05/12 09:13:19;;;;;;;231.40;148.52;;;17.70;32.40;;;;;;4967367;28;20597;-49
2022/05/12 09:15:57;;;;;;;225.65;144.57;;;17.70;1.00;;;;;;4972333;28;20221;-49
2022/05/12 09:18:29;;;;;;;232.65;151.20;;;17.80;99.90;;;;;;4963668;28;20212;-49
2022/05/12 09:21:04;;;;;;;318.83;186.90;;;17.50;99.90;;;;;;4966098;28;20217;-49
2022/05/12 09:23:33;;;;;;;218.00;146.75;;;17.30;1.00;;;;;;4958249;28;20196;-49
2022/05/12 09:25:59;;;;;;;277.73;172.20;;;;;;;;;;4964236;28;20376;-49
2022/05/12 09:28:29;;;;;;;275.55;170.27;;;17.30;1.00;;;;;;4969253;28;20218;-49
2022/05/12 09:31:01;;;;;;;264.63;165.35;;;17.60;99.90;;;;;;4971737;28;20731;-49
2022/05/12 09:33:34;;;;;;;282.30;168.27;;;17.70;99.90;;;;;;4958842;28;20219;-49
2022/05/12 09:36:13;;;;;;;298.33;181.40;;;17.60;1.00;;;;;;4962145;28;20229;-49
2022/05/12 09:38:44;;;;;;;205.80;138.75;;;17.70;1.00;;;;;;4971254;28;20685;-49
2022/05/12 09:41:21;;;;;;;249.50;156.40;;;17.70;1.00;;;;;;4976787;28;20228;-49
2022/05/12 09:43:50;;;;;;;221.65;149.98;;;17.90;1.00;;;;;;4971830;28;20213;-50
2022/05/12 09:46:29;;;;;;;262.50;158.98;;;18.00;1.00;;;;;;4968927;28;20302;-49
2022/05/12 09:49:19;;;;;;;198.52;141.35;;;18.10;1.00;;;;;;4966780;28;20324;-48
2022/05/12 09:52:11;;;;;;;194.68;134.45;;;18.10;99.90;;;;;;4981920;28;20216;-48
2022/05/12 09:54:46;;;;;;;262.60;161.93;;;;;;;;;;4973937;28;20214;-49
2022/05/12 09:57:24;;;;;;;233.50;162.70;;;18.20;99.90;;;;;;4981107;28;20276;-48
2022/05/12 09:59:56;;;;;;;199.10;147.15;;;18.20;99.90;;;;;;4981350;28;20232;-49
2022/05/12 10:08:08;;;;;;;308.95;198.50;;;;;;;;;;4957792;28;20216;-48
2022/05/12 10:10:34;;;;;;;265.80;179.48;;;18.40;1.00;;;;;;4967496;28;20271;-49
2022/05/12 10:13:27;;;;;;;252.50;174.30;;;18.60;99.90;;;;;;4977810;28;20225;-48
2022/05/12 10:15:55;;;;;;;336.63;214.23;;;;;;;;;;4955337;28;20998;-48
2022/05/12 10:18:42;;;;;;;281.40;183.13;;;18.40;1.00;;;;;;4957516;28;20307;-49
2022/05/12 10:21:28;;;;;;;263.02;172.98;;;18.40;1.00;;;;;;4962993;28;20295;-49
2022/05/12 10:24:17;;;;;;;279.42;184.10;;;18.50;1.00;;;;;;4978911;28;20228;-49
2022/05/12 10:26:50;;;;;;;262.38;175.18;;;18.80;1.00;;;;;;4976454;28;20208;-49
2022/05/12 10:29:43;;;;;;;329.08;209.40;;;18.60;1.00;;;;;;4966826;28;20762;-50
2022/05/12 10:32:34;;;;;;;266.25;179.27;;;18.70;1.00;;;;;;4983959;28;20331;-50
2022/05/12 10:35:20;;;;;;;312.02;195.20;;;18.90;99.90;;;;;;4975266;28;20221;-47
2022/05/12 10:38:01;;;;;;;309.30;201.18;;;19.20;99.90;;;;;;4977248;28;20305;-50
2022/05/12 10:40:43;;;;;;;336.55;212.23;;;19.20;99.90;;;;;;4964967;28;20214;-48
2022/05/12 10:43:21;;;;;;;285.92;188.55;;;19.20;99.90;;;;;;4961923;28;20228;-49
2022/05/12 10:45:55;;;;;;;306.63;197.00;;;;;;;;;;4978180;28;20520;-48
2022/05/12 10:48:34;;;;;;;319.95;205.32;;;19.10;1.00;;;;;;4977118;28;20228;-50
2022/05/12 10:51:02;;;;;;;347.95;218.45;;;;;;;;;;4963624;28;20220;-48
2022/05/12 10:53:48;;;;;;;310.33;194.15;;;19.20;1.00;;;;;;4971161;28;20205;-50
2022/05/12 10:56:32;;;;;;;286.27;188.85;;;19.20;99.90;;;;;;4986110;28;20316;-49
2022/05/12 10:59:40;;;;;;;371.85;233.20;;;19.20;99.90;;;;;;4979833;28;20216;-50
2022/05/12 11:02:22;;;;;;;354.00;221.75;;;19.10;99.90;;;;;;4962665;28;20304;-49
2022/05/12 11:04:53;;;;;;;339.23;208.82;;;18.90;99.90;;;;;;4974865;28;20328;-48
2022/05/12 11:07:35;;;;;;;364.45;226.07;;;19.00;99.90;;;;;;4973062;28;20283;-48
2022/05/12 11:10:09;;;;;;;381.20;236.23;;;18.90;90.70;;;;;;4960088;28;21759;-49
2022/05/12 11:12:43;;;;;;;332.92;209.77;;;19.00;59.00;;;;;;4968299;28;20336;-50
2022/05/12 11:15:14;;;;;;;353.48;211.88;;;19.10;43.50;;;;;;4980928;28;20236;-48
2022/05/12 11:17:52;;;;;;;341.73;215.15;;;19.30;20.00;;;;;;4970083;28;20205;-49
2022/05/12 11:20:32;;;;;;;376.77;220.07;;;19.60;99.90;;;;;;4976314;28;20318;-50
2022/05/12 11:23:36;;;;;;;429.48;234.68;;;19.20;3.80;;;;;;4954519;28;20213;-48
2022/05/12 11:26:26;;;;;;;328.25;192.75;;;19.50;4.10;;;;;;4975514;28;20299;-50
2022/05/12 11:29:48;;;;;;;337.52;199.57;;;19.70;1.00;;;;;;4972224;28;20216;-50
2022/05/12 11:32:53;;;;;;;347.05;200.95;;;19.70;99.90;;;;;;4978102;28;20212;-50
2022/05/12 11:35:22;;;;;;;348.73;198.00;;;19.90;1.00;;;;;;4982335;28;20868;-50
2022/05/12 11:37:50;;;;;;;344.33;201.68;;;;;;;;;;4981826;28;20240;-50
2022/05/12 11:40:44;;;;;;;338.95;197.95;;;20.10;1.00;;;;;;4985001;28;20383;-50
2022/05/12 11:46:23;;;;;;;377.92;214.35;;;20.50;1.00;;;;;;4977086;28;20295;-50
2022/05/12 11:49:04;;;;;;;376.13;213.90;;;20.70;11.70;;;;;;4978784;28;20217;-50
2022/05/12 11:51:35;;;;;;;383.90;220.20;;;20.70;1.00;;;;;;4978583;28;20312;-49
2022/05/12 11:54:07;;;;;;;443.92;255.82;;;20.90;1.00;;;;;;4970334;28;20218;-49
2022/05/12 11:56:50;;;;;;;337.92;197.73;;;21.20;99.90;;;;;;4982376;28;20296;-50
2022/05/12 11:59:42;;;;;;;364.95;208.18;;;20.90;1.00;;;;;;4980121;28;22828;-51
2022/05/12 12:02:29;;;;;;;383.15;228.55;;;21.10;99.90;;;;;;4979084;28;20217;-50
2022/05/12 12:04:59;;;;;;;346.60;206.68;;;21.40;37.80;;;;;;4975460;28;20230;-50
2022/05/12 12:07:30;;;;;;;372.48;223.73;;;21.40;1.00;;;;;;4979959;28;20218;-49
2022/05/12 12:10:15;;;;;;;384.25;231.82;;;21.30;99.90;;;;;;4982040;28;20210;-50
2022/05/12 12:12:42;;;;;;;346.13;212.73;;;;;;;;;;4981789;28;20217;-49
2022/05/12 12:15:33;;;;;;;386.52;233.35;;;21.00;1.00;;;;;;4975617;28;20224;-49
2022/05/12 12:18:01;;;;;;;368.13;224.48;;;21.00;99.90;;;;;;4970634;28;20725;-50
2022/05/12 12:20:29;;;;;;;388.63;234.15;;;21.10;1.00;;;;;;4975554;28;20182;-49
2022/05/12 12:23:17;;;;;;;385.08;233.63;;;21.30;99.90;;;;;;4978636;28;20638;-49
2022/05/12 12:25:46;;;;;;;344.40;207.13;;;21.20;1.00;;;;;;4973906;28;20229;-50
2022/05/12 12:28:40;;;;;;;382.77;228.77;;;21.10;1.00;;;;;;4977059;28;20225;-49
2022/05/12 12:31:23;;;;;;;366.55;219.05;;;20.80;1.00;;;;;;4971702;28;20247;-50
2022/05/12 12:34:22;;;;;;;360.00;219.13;;;21.40;99.90;;;;;;4979036;28;20220;-49
2022/05/12 12:36:47;;;;;;;388.85;217.57;;;;;;;;;;4972571;28;20705;-50
2022/05/12 12:39:36;;;;;;;392.65;226.90;;;21.40;99.90;;;;;;4978526;28;20217;-50
2022/05/12 12:42:29;;;;;;;429.98;249.63;;;21.50;99.90;;;;;;4974692;28;20290;-50
2022/05/12 12:44:59;;;;;;;373.05;213.02;;;21.00;1.00;;;;;;4976576;28;20820;-49
2022/05/12 12:47:33;;;;;;;409.55;239.52;;;20.50;1.00;;;;;;4971124;28;20217;-49
2022/05/12 12:50:43;;;;;;;337.33;199.35;;;20.90;1.00;;;;;;4977424;28;20308;-50
2022/05/12 12:56:30;;;;;;;386.13;228.30;;;21.00;1.00;;;;;;4984274;28;20530;-50
2022/05/12 12:58:56;;;;;;;386.42;235.90;;;;;;;;;;4979213;28;20236;-50
2022/05/12 13:01:22;;;;;;;366.58;216.50;;;;;;;;;;4972571;28;20323;-49
2022/05/12 13:03:52;;;;;;;384.83;229.88;;;21.70;1.00;;;;;;4982535;28;20272;-50
2022/05/12 13:06:28;;;;;;;325.05;221.85;;;21.80;1.00;;;;;;4978109;28;20251;-49
2022/05/12 13:09:03;;;;;;;250.75;180.27;;;21.70;1.00;;;;;;4983453;28;20229;-48
2022/05/12 13:11:28;;;;;;;257.75;181.05;;;21.50;99.90;;;;;;4979620;28;20641;-50
2022/05/12 13:13:56;;;;;;;287.52;196.05;;;21.60;1.00;;;;;;4978970;28;20217;-48
2022/05/12 13:16:27;;;;;;;276.17;191.90;;;21.60;1.00;;;;;;4974446;28;20244;-50
2022/05/12 13:18:55;;;;;;;288.38;195.38;;;21.90;1.00;;;;;;4979286;28;20213;-49
2022/05/12 13:21:21;;;;;;;306.33;205.55;;;;;;;;;;4978789;28;20279;-49
2022/05/12 13:23:58;;;;;;;270.52;194.43;;;22.10;1.00;;;;;;4970858;28;20299;-49
2022/05/12 13:26:25;;;;;;;272.00;196.73;;;;;;;;;;4979240;28;20216;-50
2022/05/12 13:28:51;;;;;;;328.90;222.50;;;;;;;;;;4974405;28;20232;-50
2022/05/12 13:31:37;;;;;;;251.00;185.80;;;22.20;1.00;;;;;;4980714;28;20670;-50
2022/05/12 13:34:04;;;;;;;235.65;175.85;;;;;;;;;;4969852;28;20280;-49